Time,TemperatureF,DewpointF,PressureIn,WindDirection,WindDirectionDegrees,WindSpeedMPH,WindSpeedGustMPH,Humidity,HourlyPrecipIn,Conditions,Clouds,dailyrainin,SoftwareType,DateUTC
2013-05-17 00:01:00,57.9,56.1,30.12,WSW,240,0.0,0.0,94,0.00,,,0.00,meteohub,2013-05-17 04:01:00,
2013-05-17 00:06:00,57.7,55.9,30.12,WSW,240,0.0,0.0,94,0.00,,,0.00,meteohub,2013-05-17 04:06:00,
2013-05-17 00:11:00,57.6,55.8,30.12,WSW,240,0.0,0.0,94,0.00,,,0.00,meteohub,2013-05-17 04:11:00,
2013-05-17 00:16:00,57.4,55.6,30.12,WSW,240,0.0,0.0,94,0.00,,,0.00,meteohub,2013-05-17 04:16:00,
2013-05-17 00:22:00,57.4,55.9,30.13,WSW,240,0.0,0.0,95,0.00,,,0.00,meteohub,2013-05-17 04:22:00,
2013-05-17 00:27:00,57.4,55.9,30.12,WSW,240,0.0,0.0,95,0.00,,,0.00,meteohub,2013-05-17 04:27:00,
2013-05-17 00:32:00,57.0,55.6,30.13,WSW,240,0.0,0.0,95,0.00,,,0.00,meteohub,2013-05-17 04:32:00,
2013-05-17 00:37:00,56.8,55.4,30.13,WSW,240,0.0,0.0,95,0.00,,,0.00,meteohub,2013-05-17 04:37:00,
2013-05-17 00:42:00,56.7,55.2,30.13,WSW,240,0.0,0.0,95,0.00,,,0.00,meteohub,2013-05-17 04:42:00,
2013-05-17 00:47:00,56.7,55.6,30.13,WSW,240,0.0,0.0,96,0.00,,,0.00,meteohub,2013-05-17 04:47:00,
2013-05-17 00:51:00,56.5,55.4,30.13,WSW,240,0.0,0.0,96,0.00,,,0.00,meteohub,2013-05-17 04:51:00,
2013-05-17 00:57:00,56.5,55.4,30.13,WSW,240,0.0,0.0,96,0.00,,,0.00,meteohub,2013-05-17 04:57:00,
2013-05-17 01:02:00,56.3,55.2,30.13,WSW,240,0.0,0.0,96,0.00,,,0.00,meteohub,2013-05-17 05:02:00,
2013-05-17 01:07:00,56.1,55.0,30.12,WSW,240,0.0,0.0,96,0.00,,,0.00,meteohub,2013-05-17 05:07:00,
2013-05-17 01:12:00,56.1,55.0,30.12,WSW,240,0.0,0.0,96,0.00,,,0.00,meteohub,2013-05-17 05:12:00,
2013-05-17 01:17:00,55.9,54.9,30.12,WSW,240,0.0,0.0,96,0.00,,,0.00,meteohub,2013-05-17 05:17:00,
2013-05-17 01:22:00,55.8,54.7,30.12,WSW,240,0.0,0.0,96,0.00,,,0.00,meteohub,2013-05-17 05:22:00,
2013-05-17 01:27:00,55.8,54.7,30.12,WSW,240,0.0,0.0,96,0.00,,,0.00,meteohub,2013-05-17 05:27:00,
2013-05-17 01:32:00,55.8,54.7,30.12,WSW,240,0.0,0.0,96,0.00,,,0.00,meteohub,2013-05-17 05:32:00,
2013-05-17 01:37:00,55.6,54.7,30.12,WSW,240,0.0,0.0,97,0.00,,,0.00,meteohub,2013-05-17 05:37:00,
2013-05-17 01:42:00,55.4,54.5,30.12,WSW,240,0.0,0.0,97,0.00,,,0.00,meteohub,2013-05-17 05:42:00,
2013-05-17 01:47:00,55.4,54.5,30.12,WSW,240,0.0,0.0,97,0.00,,,0.00,meteohub,2013-05-17 05:47:00,
2013-05-17 01:52:00,55.2,54.3,30.12,WSW,240,0.0,0.0,97,0.00,,,0.00,meteohub,2013-05-17 05:52:00,
2013-05-17 01:57:00,55.0,54.1,30.12,WSW,240,0.0,0.0,97,0.00,,,0.00,meteohub,2013-05-17 05:57:00,
2013-05-17 02:02:00,54.9,54.0,30.12,WSW,240,0.0,0.0,97,0.00,,,0.00,meteohub,2013-05-17 06:02:00,
2013-05-17 02:07:00,54.7,53.8,30.11,WSW,240,0.0,0.0,97,0.00,,,0.00,meteohub,2013-05-17 06:07:00,
2013-05-17 02:12:00,54.7,53.8,30.11,WSW,240,0.0,0.0,97,0.00,,,0.00,meteohub,2013-05-17 06:12:00,
2013-05-17 02:17:00,54.7,53.8,30.11,WSW,240,0.0,0.0,97,0.00,,,0.00,meteohub,2013-05-17 06:17:00,
2013-05-17 02:22:00,54.5,53.6,30.11,WSW,240,0.0,0.0,97,0.00,,,0.00,meteohub,2013-05-17 06:22:00,
2013-05-17 02:27:00,54.3,53.4,30.11,WSW,240,0.0,0.0,97,0.00,,,0.00,meteohub,2013-05-17 06:27:00,
2013-05-17 02:32:00,54.3,53.4,30.11,WSW,240,0.0,0.0,97,0.00,,,0.00,meteohub,2013-05-17 06:32:00,
2013-05-17 02:37:00,54.1,53.2,30.11,WSW,240,0.0,0.0,97,0.00,,,0.00,meteohub,2013-05-17 06:37:00,
2013-05-17 02:42:00,54.0,53.1,30.11,WSW,240,0.0,0.0,97,0.00,,,0.00,meteohub,2013-05-17 06:42:00,
2013-05-17 02:47:00,54.0,53.4,30.11,WSW,240,0.0,0.0,98,0.00,,,0.00,meteohub,2013-05-17 06:47:00,
2013-05-17 02:52:00,54.0,53.4,30.11,WSW,240,0.0,0.0,98,0.00,,,0.00,meteohub,2013-05-17 06:52:00,
2013-05-17 02:57:00,54.0,53.4,30.11,WSW,240,0.0,0.0,98,0.00,,,0.00,meteohub,2013-05-17 06:57:00,
2013-05-17 03:02:00,54.0,53.1,30.11,WSW,240,0.0,0.0,97,0.00,,,0.00,meteohub,2013-05-17 07:02:00,
2013-05-17 03:07:00,53.8,53.2,30.11,WSW,240,0.0,0.0,98,0.00,,,0.00,meteohub,2013-05-17 07:07:00,
2013-05-17 03:12:00,53.8,52.9,30.12,WSW,240,0.0,0.0,97,0.00,,,0.00,meteohub,2013-05-17 07:12:00,
2013-05-17 03:17:00,53.4,52.5,30.12,WSW,240,0.0,0.0,97,0.00,,,0.00,meteohub,2013-05-17 07:17:00,
2013-05-17 03:22:00,53.4,52.9,30.12,WSW,240,0.0,0.0,98,0.00,,,0.00,meteohub,2013-05-17 07:22:00,
2013-05-17 03:27:00,53.2,52.7,30.12,WSW,240,0.0,0.0,98,0.00,,,0.00,meteohub,2013-05-17 07:27:00,
2013-05-17 03:32:00,53.1,52.2,30.12,WSW,240,0.0,0.0,97,0.00,,,0.00,meteohub,2013-05-17 07:32:00,
2013-05-17 03:37:00,52.9,52.3,30.12,WSW,240,0.0,0.0,98,0.00,,,0.00,meteohub,2013-05-17 07:37:00,
2013-05-17 03:42:00,52.9,52.3,30.12,WSW,240,0.0,0.0,98,0.00,,,0.00,meteohub,2013-05-17 07:42:00,
2013-05-17 03:47:00,52.9,52.3,30.12,WSW,240,0.0,0.0,98,0.00,,,0.00,meteohub,2013-05-17 07:47:00,
2013-05-17 03:52:00,52.9,52.3,30.12,WSW,241,0.0,0.0,98,0.00,,,0.00,meteohub,2013-05-17 07:52:00,
2013-05-17 03:57:00,52.9,52.3,30.12,WSW,240,0.0,0.0,98,0.00,,,0.00,meteohub,2013-05-17 07:57:00,
2013-05-17 04:02:00,52.7,52.2,30.13,WSW,240,0.0,0.0,98,0.00,,,0.00,meteohub,2013-05-17 08:02:00,
2013-05-17 04:07:00,52.7,52.2,30.13,WSW,240,0.0,0.0,98,0.00,,,0.00,meteohub,2013-05-17 08:07:00,
2013-05-17 04:12:00,52.5,52.0,30.13,WSW,240,0.0,0.0,98,0.00,,,0.00,meteohub,2013-05-17 08:12:00,
2013-05-17 04:17:00,52.3,51.8,30.13,WSW,240,0.0,0.0,98,0.00,,,0.00,meteohub,2013-05-17 08:17:00,
2013-05-17 04:22:00,52.3,51.8,30.13,WSW,240,0.0,0.0,98,0.00,,,0.00,meteohub,2013-05-17 08:22:00,
2013-05-17 04:27:00,52.3,51.8,30.13,WSW,240,0.0,0.0,98,0.00,,,0.00,meteohub,2013-05-17 08:27:00,
2013-05-17 04:32:00,52.3,51.8,30.13,WSW,240,0.0,0.0,98,0.00,,,0.00,meteohub,2013-05-17 08:32:00,
2013-05-17 04:37:00,52.2,51.6,30.13,WSW,240,0.0,0.0,98,0.00,,,0.00,meteohub,2013-05-17 08:37:00,
2013-05-17 04:42:00,52.2,51.6,30.13,WSW,240,0.0,0.0,98,0.00,,,0.00,meteohub,2013-05-17 08:42:00,
2013-05-17 04:47:00,52.2,51.6,30.13,WSW,240,0.0,0.0,98,0.00,,,0.00,meteohub,2013-05-17 08:47:00,
2013-05-17 04:52:00,52.2,51.6,30.13,WSW,240,0.0,0.0,98,0.00,,,0.00,meteohub,2013-05-17 08:52:00,
2013-05-17 04:57:00,52.2,51.6,30.13,WSW,240,0.0,0.0,98,0.00,,,0.00,meteohub,2013-05-17 08:57:00,
2013-05-17 05:02:00,52.0,51.4,30.14,WSW,240,0.0,0.0,98,0.00,,,0.00,meteohub,2013-05-17 09:02:00,
2013-05-17 05:07:00,52.2,51.6,30.14,WSW,240,0.0,0.0,98,0.00,,,0.00,meteohub,2013-05-17 09:07:00,
2013-05-17 05:12:00,52.2,51.6,30.14,WSW,240,0.0,0.0,98,0.00,,,0.00,meteohub,2013-05-17 09:12:00,
2013-05-17 05:17:00,52.2,51.6,30.14,WSW,240,0.0,0.0,98,0.00,,,0.00,meteohub,2013-05-17 09:17:00,
2013-05-17 05:22:00,52.2,51.6,30.14,WSW,240,0.0,0.0,98,0.00,,,0.00,meteohub,2013-05-17 09:22:00,
2013-05-17 05:27:00,52.3,52.0,30.14,WSW,240,0.0,0.0,99,0.00,,,0.00,meteohub,2013-05-17 09:27:00,
2013-05-17 05:32:00,52.5,52.2,30.14,WSW,240,0.0,0.0,99,0.00,,,0.00,meteohub,2013-05-17 09:32:00,
2013-05-17 05:37:00,52.3,51.8,30.15,WSW,241,0.0,0.0,98,0.00,,,0.00,meteohub,2013-05-17 09:37:00,
2013-05-17 05:42:00,52.3,51.8,30.15,WSW,240,0.0,0.0,98,0.00,,,0.00,meteohub,2013-05-17 09:42:00,
2013-05-17 05:47:00,52.5,52.2,30.15,WSW,240,0.0,0.0,99,0.00,,,0.00,meteohub,2013-05-17 09:47:00,
2013-05-17 05:52:00,52.5,52.2,30.15,WSW,240,0.0,0.0,99,0.00,,,0.00,meteohub,2013-05-17 09:52:00,
2013-05-17 05:57:00,52.5,52.2,30.15,WSW,240,0.0,0.0,99,0.00,,,0.00,meteohub,2013-05-17 09:57:00,
2013-05-17 06:02:00,52.5,52.2,30.15,WSW,240,0.0,0.0,99,0.00,,,0.00,meteohub,2013-05-17 10:02:00,
2013-05-17 06:07:00,52.5,52.0,30.15,SW,235,0.0,0.0,98,0.00,,,0.00,meteohub,2013-05-17 10:07:00,
2013-05-17 06:12:00,52.5,52.0,30.16,SW,234,0.0,0.0,98,0.00,,,0.00,meteohub,2013-05-17 10:12:00,
2013-05-17 06:17:00,52.5,52.2,30.16,SW,235,0.0,0.0,99,0.00,,,0.00,meteohub,2013-05-17 10:17:00,
2013-05-17 06:22:00,52.9,52.5,30.16,SW,235,0.0,0.0,99,0.00,,,0.00,meteohub,2013-05-17 10:22:00,
2013-05-17 06:27:00,52.9,52.5,30.16,SW,235,0.0,0.0,99,0.00,,,0.00,meteohub,2013-05-17 10:27:00,
2013-05-17 06:32:00,53.1,52.7,30.16,SW,234,0.0,0.0,99,0.00,,,0.00,meteohub,2013-05-17 10:32:00,
2013-05-17 06:37:00,53.1,52.7,30.16,SW,234,0.0,0.0,99,0.00,,,0.00,meteohub,2013-05-17 10:37:00,
2013-05-17 06:42:00,53.1,52.5,30.17,SW,234,0.0,0.0,98,0.00,,,0.00,meteohub,2013-05-17 10:42:00,
2013-05-17 06:47:00,53.1,52.5,30.17,SW,235,0.0,0.0,98,0.00,,,0.00,meteohub,2013-05-17 10:47:00,
2013-05-17 06:52:00,53.1,52.5,30.17,SW,235,0.0,0.0,98,0.00,,,0.00,meteohub,2013-05-17 10:52:00,
2013-05-17 06:57:00,53.1,52.5,30.17,SW,235,0.0,0.0,98,0.00,,,0.00,meteohub,2013-05-17 10:57:00,
2013-05-17 07:02:00,53.2,52.9,30.17,SW,234,0.0,0.0,99,0.00,,,0.00,meteohub,2013-05-17 11:02:00,
2013-05-17 07:07:00,53.2,52.7,30.17,SW,235,0.0,0.0,98,0.00,,,0.00,meteohub,2013-05-17 11:07:00,
2013-05-17 07:12:00,53.2,52.7,30.17,SW,235,0.0,0.0,98,0.00,,,0.00,meteohub,2013-05-17 11:12:00,
2013-05-17 07:17:00,53.4,52.9,30.17,SW,235,0.0,0.0,98,0.00,,,0.00,meteohub,2013-05-17 11:17:00,
2013-05-17 07:22:00,53.4,52.9,30.17,SW,235,0.0,0.0,98,0.00,,,0.00,meteohub,2013-05-17 11:22:00,
2013-05-17 07:27:00,53.8,53.4,30.17,SW,234,0.0,0.0,99,0.00,,,0.00,meteohub,2013-05-17 11:27:00,
2013-05-17 07:32:00,54.0,53.4,30.18,SW,234,0.0,0.0,98,0.00,,,0.00,meteohub,2013-05-17 11:32:00,
2013-05-17 07:37:00,54.1,53.6,30.18,SW,235,0.0,0.0,98,0.00,,,0.00,meteohub,2013-05-17 11:37:00,
2013-05-17 07:42:00,54.5,54.1,30.18,SW,235,0.0,0.0,99,0.00,,,0.00,meteohub,2013-05-17 11:42:00,
2013-05-17 07:47:00,54.7,54.1,30.18,SW,235,0.0,0.0,98,0.00,,,0.00,meteohub,2013-05-17 11:47:00,
2013-05-17 07:52:00,55.2,54.7,30.18,SW,235,0.0,0.0,98,0.00,,,0.00,meteohub,2013-05-17 11:52:00,
2013-05-17 07:57:00,56.5,56.1,30.18,SW,235,0.0,0.0,99,0.00,,,0.00,meteohub,2013-05-17 11:57:00,
2013-05-17 08:02:00,57.9,57.4,30.18,SW,235,0.0,0.0,98,0.00,,,0.00,meteohub,2013-05-17 12:02:00,
2013-05-17 08:07:00,58.6,57.6,30.18,SW,235,0.0,0.0,96,0.00,,,0.00,meteohub,2013-05-17 12:07:00,
2013-05-17 08:12:00,59.0,57.0,30.18,SW,235,0.0,0.0,93,0.00,,,0.00,meteohub,2013-05-17 12:12:00,
2013-05-17 08:17:00,59.2,56.5,30.18,SW,235,0.0,0.0,91,0.00,,,0.00,meteohub,2013-05-17 12:17:00,
2013-05-17 08:22:00,59.2,56.5,30.18,SW,235,0.0,0.0,91,0.00,,,0.00,meteohub,2013-05-17 12:22:00,
2013-05-17 08:27:00,59.4,56.7,30.19,SW,235,0.0,0.0,91,0.00,,,0.00,meteohub,2013-05-17 12:27:00,
2013-05-17 08:32:00,59.4,56.5,30.19,SW,235,0.0,0.0,90,0.00,,,0.00,meteohub,2013-05-17 12:32:00,
2013-05-17 08:37:00,59.4,56.7,30.19,SW,214,0.0,0.0,91,0.00,,,0.00,meteohub,2013-05-17 12:37:00,
2013-05-17 08:42:00,59.5,56.8,30.19,SW,214,0.0,0.0,91,0.00,,,0.00,meteohub,2013-05-17 12:42:00,
2013-05-17 08:47:00,59.9,57.0,30.19,SW,214,0.0,0.0,90,0.00,,,0.00,meteohub,2013-05-17 12:47:00,
2013-05-17 08:52:00,60.3,57.4,30.19,SW,214,0.0,0.0,90,0.00,,,0.00,meteohub,2013-05-17 12:52:00,
2013-05-17 08:57:00,60.4,57.2,30.19,SW,214,0.0,0.0,89,0.00,,,0.00,meteohub,2013-05-17 12:57:00,
2013-05-17 09:02:00,60.6,57.7,30.19,SW,226,0.0,0.0,90,0.00,,,0.00,meteohub,2013-05-17 13:02:00,
2013-05-17 09:07:00,60.8,58.1,30.19,SW,223,1.0,1.0,91,0.00,,,0.00,meteohub,2013-05-17 13:07:00,
2013-05-17 09:12:00,61.3,58.6,30.19,SW,223,1.0,1.0,91,0.00,,,0.00,meteohub,2013-05-17 13:12:00,
2013-05-17 09:17:00,61.9,58.6,30.19,SW,224,0.0,1.0,89,0.00,,,0.00,meteohub,2013-05-17 13:17:00,
2013-05-17 09:22:00,62.2,58.6,30.19,SSW,212,0.0,1.0,88,0.00,,,0.00,meteohub,2013-05-17 13:22:00,
2013-05-17 09:27:00,63.0,59.4,30.19,SSW,212,1.0,2.0,88,0.00,,,0.00,meteohub,2013-05-17 13:27:00,
2013-05-17 09:32:00,63.1,58.6,30.19,NNE,26,2.0,2.0,85,0.00,,,0.00,meteohub,2013-05-17 13:32:00,
2013-05-17 09:37:00,63.3,58.8,30.19,NNE,27,2.0,5.0,85,0.00,,,0.00,meteohub,2013-05-17 13:37:00,
2013-05-17 09:42:00,63.3,58.8,30.19,NE,53,3.0,5.0,85,0.00,,,0.00,meteohub,2013-05-17 13:42:00,
2013-05-17 09:47:00,63.7,59.0,30.19,North,9,1.0,5.0,85,0.00,,,0.00,meteohub,2013-05-17 13:47:00,
2013-05-17 09:52:00,64.4,59.5,30.19,NE,48,0.0,5.0,84,0.00,,,0.00,meteohub,2013-05-17 13:52:00,
2013-05-17 09:57:00,64.9,59.4,30.19,NE,38,1.0,4.0,82,0.00,,,0.00,meteohub,2013-05-17 13:57:00,
2013-05-17 10:02:00,65.7,59.7,30.19,East,81,1.0,4.0,81,0.00,,,0.00,meteohub,2013-05-17 14:02:00,
2013-05-17 10:07:00,66.6,59.5,30.19,ENE,68,0.0,4.0,78,0.00,,,0.00,meteohub,2013-05-17 14:07:00,
2013-05-17 10:12:00,68.0,60.8,30.19,ENE,65,2.0,2.0,78,0.00,,,0.00,meteohub,2013-05-17 14:12:00,
2013-05-17 10:17:00,68.7,60.1,30.18,NE,47,3.0,3.0,74,0.00,,,0.00,meteohub,2013-05-17 14:17:00,
2013-05-17 10:22:00,68.7,60.1,30.19,NNE,20,1.0,5.0,74,0.00,,,0.00,meteohub,2013-05-17 14:22:00,
2013-05-17 10:27:00,69.3,59.5,30.19,NNE,33,2.0,5.0,71,0.00,,,0.00,meteohub,2013-05-17 14:27:00,
2013-05-17 10:32:00,69.6,59.4,30.19,East,98,1.0,6.0,70,0.00,,,0.00,meteohub,2013-05-17 14:32:00,
2013-05-17 10:37:00,70.7,59.2,30.19,NE,53,5.0,6.0,67,0.00,,,0.00,meteohub,2013-05-17 14:37:00,
2013-05-17 10:42:00,70.5,58.6,30.19,ENE,70,4.0,7.0,66,0.00,,,0.00,meteohub,2013-05-17 14:42:00,
2013-05-17 10:47:00,70.9,58.5,30.19,East,91,2.0,7.0,65,0.00,,,0.00,meteohub,2013-05-17 14:47:00,
2013-05-17 10:52:00,71.2,58.8,30.18,ENE,63,2.0,7.0,65,0.00,,,0.00,meteohub,2013-05-17 14:52:00,
2013-05-17 10:57:00,71.4,59.0,30.18,NE,53,2.0,8.0,65,0.00,,,0.00,meteohub,2013-05-17 14:57:00,
2013-05-17 11:02:00,71.4,59.0,30.18,ENE,58,2.0,8.0,65,0.00,,,0.00,meteohub,2013-05-17 15:02:00,
2013-05-17 11:07:00,71.6,60.1,30.18,ESE,105,0.0,8.0,67,0.00,,,0.00,meteohub,2013-05-17 15:07:00,
2013-05-17 11:12:00,72.1,59.4,30.18,WSW,250,0.0,7.0,64,0.00,,,0.00,meteohub,2013-05-17 15:12:00,
2013-05-17 11:17:00,72.7,60.3,30.18,WNW,292,0.0,6.0,65,0.00,,,0.00,meteohub,2013-05-17 15:17:00,
2013-05-17 11:22:00,73.2,61.5,30.18,SW,232,0.0,6.0,67,0.00,,,0.00,meteohub,2013-05-17 15:22:00,
2013-05-17 11:27:00,73.6,60.6,30.19,ESE,103,2.0,3.0,64,0.00,,,0.00,meteohub,2013-05-17 15:27:00,
2013-05-17 11:32:00,73.8,60.4,30.18,East,85,0.0,3.0,63,0.00,,,0.00,meteohub,2013-05-17 15:32:00,
2013-05-17 11:37:00,74.1,60.8,30.19,East,85,1.0,3.0,63,0.00,,,0.00,meteohub,2013-05-17 15:37:00,
2013-05-17 11:42:00,74.8,61.9,30.18,SSE,155,0.0,3.0,64,0.00,,,0.00,meteohub,2013-05-17 15:42:00,
2013-05-17 11:47:00,74.7,59.9,30.18,NE,39,2.0,4.0,60,0.00,,,0.00,meteohub,2013-05-17 15:47:00,
2013-05-17 11:52:00,75.0,61.2,30.18,East,89,1.0,4.0,62,0.00,,,0.00,meteohub,2013-05-17 15:52:00,
2013-05-17 11:57:00,75.9,60.6,30.18,SSW,207,6.0,6.0,59,0.00,,,0.00,meteohub,2013-05-17 15:57:00,
2013-05-17 12:02:00,75.7,60.4,30.18,WSW,248,4.0,7.0,59,0.00,,,0.00,meteohub,2013-05-17 16:02:00,
2013-05-17 12:07:00,75.7,60.4,30.18,South,191,3.0,7.0,59,0.00,,,0.00,meteohub,2013-05-17 16:07:00,
2013-05-17 12:12:00,75.7,60.8,30.18,SE,145,3.0,7.0,60,0.00,,,0.00,meteohub,2013-05-17 16:12:00,
2013-05-17 12:17:00,75.7,60.8,30.18,WSW,245,7.0,8.0,60,0.00,,,0.00,meteohub,2013-05-17 16:17:00,
2013-05-17 12:22:00,75.6,61.2,30.18,South,187,4.0,9.0,61,0.00,,,0.00,meteohub,2013-05-17 16:22:00,
2013-05-17 12:27:00,75.2,60.4,30.17,SSW,210,4.0,9.0,60,0.00,,,0.00,meteohub,2013-05-17 16:27:00,
2013-05-17 12:32:00,74.8,60.4,30.18,WSW,240,4.0,9.0,61,0.00,,,0.00,meteohub,2013-05-17 16:32:00,
2013-05-17 12:37:00,74.7,59.9,30.17,SW,229,4.0,10.0,60,0.00,,,0.00,meteohub,2013-05-17 16:37:00,
2013-05-17 12:42:00,74.5,60.6,30.17,SW,225,4.0,11.0,62,0.00,,,0.00,meteohub,2013-05-17 16:42:00,
2013-05-17 12:47:00,74.1,60.3,30.17,WSW,239,4.0,11.0,62,0.00,,,0.00,meteohub,2013-05-17 16:47:00,
2013-05-17 12:52:00,73.9,59.2,30.17,WNW,284,5.0,11.0,60,0.00,,,0.00,meteohub,2013-05-17 16:52:00,
2013-05-17 12:57:00,73.2,59.4,30.17,SSW,201,2.0,11.0,62,0.00,,,0.00,meteohub,2013-05-17 16:57:00,
2013-05-17 13:02:00,73.0,58.3,30.17,SSW,210,3.0,8.0,60,0.00,,,0.00,meteohub,2013-05-17 17:02:00,
2013-05-17 13:07:00,72.7,57.9,30.17,WSW,256,4.0,9.0,60,0.00,,,0.00,meteohub,2013-05-17 17:07:00,
2013-05-17 13:12:00,72.3,58.1,30.17,SSW,193,5.0,9.0,61,0.00,,,0.00,meteohub,2013-05-17 17:12:00,
2013-05-17 13:17:00,72.0,58.3,30.17,SW,225,4.0,9.0,62,0.00,,,0.00,meteohub,2013-05-17 17:17:00,
2013-05-17 13:22:00,71.8,59.4,30.17,WSW,239,3.0,9.0,65,0.00,,,0.00,meteohub,2013-05-17 17:22:00,
2013-05-17 13:27:00,71.4,59.5,30.17,WSW,252,1.0,9.0,66,0.00,,,0.00,meteohub,2013-05-17 17:27:00,
2013-05-17 13:32:00,71.4,59.9,30.18,SW,218,5.0,8.0,67,0.00,,,0.00,meteohub,2013-05-17 17:32:00,
2013-05-17 13:37:00,71.2,59.7,30.18,SW,221,3.0,7.0,67,0.00,,,0.00,meteohub,2013-05-17 17:37:00,
2013-05-17 13:42:00,71.2,61.0,30.18,WSW,245,2.0,10.0,70,0.00,,,0.00,meteohub,2013-05-17 17:42:00,
2013-05-17 13:47:00,71.6,60.4,30.18,West,270,2.0,10.0,68,0.00,,,0.00,meteohub,2013-05-17 17:47:00,
2013-05-17 13:52:00,71.8,60.3,30.17,WSW,239,2.0,10.0,67,0.00,,,0.00,meteohub,2013-05-17 17:52:00,
2013-05-17 13:57:00,72.1,60.6,30.18,WSW,252,2.0,9.0,67,0.00,,,0.00,meteohub,2013-05-17 17:57:00,
2013-05-17 14:02:00,72.5,60.4,30.17,SW,224,3.0,9.0,66,0.00,,,0.00,meteohub,2013-05-17 18:02:00,
2013-05-17 14:07:00,73.2,61.5,30.17,SW,235,6.0,10.0,67,0.00,,,0.00,meteohub,2013-05-17 18:07:00,
2013-05-17 14:12:00,74.1,60.8,30.17,WSW,238,4.0,10.0,63,0.00,,,0.00,meteohub,2013-05-17 18:12:00,
2013-05-17 14:17:00,74.8,62.2,30.17,SW,234,3.0,9.0,65,0.00,,,0.00,meteohub,2013-05-17 18:17:00,
2013-05-17 14:22:00,75.4,61.0,30.17,SW,232,5.0,8.0,61,0.00,,,0.00,meteohub,2013-05-17 18:22:00,
2013-05-17 14:27:00,75.6,60.6,30.17,West,274,2.0,7.0,60,0.00,,,0.00,meteohub,2013-05-17 18:27:00,
2013-05-17 14:32:00,76.3,61.0,30.16,SW,226,4.0,7.0,59,0.00,,,0.00,meteohub,2013-05-17 18:32:00,
2013-05-17 14:37:00,76.3,61.0,30.16,SW,217,7.0,11.0,59,0.00,,,0.00,meteohub,2013-05-17 18:37:00,
2013-05-17 14:42:00,76.6,60.8,30.16,South,171,2.0,11.0,58,0.00,,,0.00,meteohub,2013-05-17 18:42:00,
2013-05-17 14:47:00,76.6,60.3,30.16,SW,226,3.0,11.0,57,0.00,,,0.00,meteohub,2013-05-17 18:47:00,
2013-05-17 14:52:00,76.3,59.9,30.16,SSW,197,3.0,8.0,57,0.00,,,0.00,meteohub,2013-05-17 18:52:00,
2013-05-17 14:57:00,76.8,61.9,30.15,SSE,166,6.0,10.0,60,0.00,,,0.00,meteohub,2013-05-17 18:57:00,
2013-05-17 15:02:00,77.2,60.8,30.15,SSW,195,3.0,10.0,57,0.00,,,0.00,meteohub,2013-05-17 19:02:00,
2013-05-17 15:07:00,77.5,58.5,30.15,SSW,210,7.0,11.0,52,0.00,,,0.00,meteohub,2013-05-17 19:07:00,
2013-05-17 15:12:00,77.0,58.6,30.15,SW,214,9.0,13.0,53,0.00,,,0.00,meteohub,2013-05-17 19:12:00,
2013-05-17 15:17:00,76.8,59.0,30.15,South,175,1.0,13.0,54,0.00,,,0.00,meteohub,2013-05-17 19:17:00,
2013-05-17 15:22:00,76.8,58.5,30.14,SSE,163,6.0,13.0,53,0.00,,,0.00,meteohub,2013-05-17 19:22:00,
2013-05-17 15:27:00,77.0,59.0,30.14,SW,228,2.0,9.0,54,0.00,,,0.00,meteohub,2013-05-17 19:27:00,
2013-05-17 15:32:00,77.2,58.3,30.14,SW,221,2.0,12.0,52,0.00,,,0.00,meteohub,2013-05-17 19:32:00,
2013-05-17 15:37:00,77.5,57.4,30.14,South,174,3.0,12.0,50,0.00,,,0.00,meteohub,2013-05-17 19:37:00,
2013-05-17 15:42:00,78.1,56.3,30.14,SW,221,4.0,12.0,47,0.00,,,0.00,meteohub,2013-05-17 19:42:00,
2013-05-17 15:47:00,77.7,56.5,30.14,West,264,5.0,9.0,48,0.00,,,0.00,meteohub,2013-05-17 19:47:00,
2013-05-17 15:52:00,77.5,57.4,30.14,WNW,297,4.0,12.0,50,0.00,,,0.00,meteohub,2013-05-17 19:52:00,
2013-05-17 15:57:00,77.5,57.9,30.14,WSW,253,4.0,12.0,51,0.00,,,0.00,meteohub,2013-05-17 19:57:00,
2013-05-17 16:02:00,77.4,57.7,30.14,SW,224,3.0,12.0,51,0.00,,,0.00,meteohub,2013-05-17 20:02:00,
2013-05-17 16:07:00,77.7,58.1,30.14,WSW,238,5.0,12.0,51,0.00,,,0.00,meteohub,2013-05-17 20:07:00,
2013-05-17 16:12:00,77.4,57.7,30.13,SW,231,4.0,12.0,51,0.00,,,0.00,meteohub,2013-05-17 20:12:00,
2013-05-17 16:17:00,77.5,58.5,30.13,SW,221,5.0,12.0,52,0.00,,,0.00,meteohub,2013-05-17 20:17:00,
2013-05-17 16:22:00,77.5,57.9,30.13,South,183,3.0,12.0,51,0.00,,,0.00,meteohub,2013-05-17 20:22:00,
2013-05-17 16:27:00,77.4,59.4,30.13,SE,134,5.0,8.0,54,0.00,,,0.00,meteohub,2013-05-17 20:27:00,
2013-05-17 16:32:00,76.6,59.7,30.13,West,259,4.0,9.0,56,0.00,,,0.00,meteohub,2013-05-17 20:32:00,
2013-05-17 16:37:00,76.8,59.9,30.13,SW,231,4.0,9.0,56,0.00,,,0.00,meteohub,2013-05-17 20:37:00,
2013-05-17 16:42:00,77.2,60.3,30.13,SE,145,7.0,9.0,56,0.00,,,0.00,meteohub,2013-05-17 20:42:00,
2013-05-17 16:47:00,76.5,59.5,30.13,SW,231,4.0,11.0,56,0.00,,,0.00,meteohub,2013-05-17 20:47:00,
2013-05-17 16:52:00,76.3,61.0,30.13,SW,214,5.0,11.0,59,0.00,,,0.00,meteohub,2013-05-17 20:52:00,
2013-05-17 16:57:00,75.9,60.1,30.13,SW,222,4.0,11.0,58,0.00,,,0.00,meteohub,2013-05-17 20:57:00,
2013-05-17 17:02:00,76.1,60.3,30.12,SSE,156,4.0,11.0,58,0.00,,,0.00,meteohub,2013-05-17 21:02:00,
2013-05-17 17:07:00,75.9,60.6,30.12,WSW,245,2.0,11.0,59,0.00,,,0.00,meteohub,2013-05-17 21:07:00,
2013-05-17 17:12:00,75.4,61.0,30.12,SW,235,7.0,10.0,61,0.00,,,0.00,meteohub,2013-05-17 21:12:00,
2013-05-17 17:17:00,75.4,61.5,30.12,West,266,5.0,13.0,62,0.00,,,0.00,meteohub,2013-05-17 21:17:00,
2013-05-17 17:22:00,75.0,61.2,30.12,SW,226,4.0,13.0,62,0.00,,,0.00,meteohub,2013-05-17 21:22:00,
2013-05-17 17:27:00,74.8,61.9,30.13,SSW,198,5.0,13.0,64,0.00,,,0.00,meteohub,2013-05-17 21:27:00,
2013-05-17 17:32:00,74.5,61.5,30.13,WSW,248,5.0,11.0,64,0.00,,,0.00,meteohub,2013-05-17 21:32:00,
2013-05-17 17:37:00,74.1,60.8,30.13,SW,218,6.0,11.0,63,0.00,,,0.00,meteohub,2013-05-17 21:37:00,
2013-05-17 17:42:00,73.8,61.3,30.13,SSW,212,6.0,15.0,65,0.00,,,0.00,meteohub,2013-05-17 21:42:00,
2013-05-17 17:47:00,73.9,60.6,30.13,SW,228,9.0,15.0,63,0.00,,,0.00,meteohub,2013-05-17 21:47:00,
2013-05-17 17:52:00,73.9,61.0,30.13,WSW,247,3.0,15.0,64,0.00,,,0.00,meteohub,2013-05-17 21:52:00,
2013-05-17 17:57:00,73.9,60.1,30.13,West,267,2.0,13.0,62,0.00,,,0.00,meteohub,2013-05-17 21:57:00,
2013-05-17 18:02:00,73.9,59.7,30.13,SW,221,3.0,11.0,61,0.00,,,0.00,meteohub,2013-05-17 22:02:00,
2013-05-17 18:07:00,73.6,59.4,30.13,SW,235,2.0,11.0,61,0.00,,,0.00,meteohub,2013-05-17 22:07:00,
2013-05-17 18:12:00,73.0,59.2,30.13,South,181,5.0,11.0,62,0.00,,,0.00,meteohub,2013-05-17 22:12:00,
2013-05-17 18:17:00,72.9,59.9,30.12,SW,226,5.0,11.0,64,0.00,,,0.00,meteohub,2013-05-17 22:17:00,
2013-05-17 18:22:00,72.3,59.0,30.12,SW,233,3.0,9.0,63,0.00,,,0.00,meteohub,2013-05-17 22:22:00,
2013-05-17 18:27:00,72.1,58.8,30.12,SW,232,2.0,9.0,63,0.00,,,0.00,meteohub,2013-05-17 22:27:00,
2013-05-17 18:32:00,72.0,59.5,30.12,WSW,246,3.0,9.0,65,0.00,,,0.00,meteohub,2013-05-17 22:32:00,
2013-05-17 18:37:00,71.8,59.0,30.12,SW,230,2.0,9.0,64,0.00,,,0.00,meteohub,2013-05-17 22:37:00,
2013-05-17 18:42:00,71.8,59.0,30.12,SW,233,3.0,6.0,64,0.00,,,0.00,meteohub,2013-05-17 22:42:00,
2013-05-17 18:47:00,71.6,59.2,30.12,West,259,1.0,7.0,65,0.00,,,0.00,meteohub,2013-05-17 22:47:00,
2013-05-17 18:52:00,71.4,58.6,30.12,WSW,255,3.0,7.0,64,0.00,,,0.00,meteohub,2013-05-17 22:52:00,
2013-05-17 18:57:00,71.2,58.5,30.12,SSW,195,1.0,6.0,64,0.00,,,0.00,meteohub,2013-05-17 22:57:00,
2013-05-17 19:02:00,71.2,58.5,30.12,SSW,212,2.0,6.0,64,0.00,,,0.00,meteohub,2013-05-17 23:02:00,
2013-05-17 19:07:00,71.2,58.5,30.13,WSW,245,4.0,7.0,64,0.00,,,0.00,meteohub,2013-05-17 23:07:00,
2013-05-17 19:12:00,71.1,58.3,30.13,WSW,240,3.0,7.0,64,0.00,,,0.00,meteohub,2013-05-17 23:12:00,
2013-05-17 19:17:00,71.1,58.6,30.13,SW,225,2.0,7.0,65,0.00,,,0.00,meteohub,2013-05-17 23:17:00,
2013-05-17 19:22:00,71.1,58.6,30.13,SSW,198,3.0,7.0,65,0.00,,,0.00,meteohub,2013-05-17 23:22:00,
2013-05-17 19:27:00,71.1,59.2,30.13,SW,235,2.0,6.0,66,0.00,,,0.00,meteohub,2013-05-17 23:27:00,
2013-05-17 19:32:00,70.9,59.0,30.13,SW,234,1.0,4.0,66,0.00,,,0.00,meteohub,2013-05-17 23:32:00,
2013-05-17 19:37:00,70.5,58.1,30.13,SW,226,4.0,4.0,65,0.00,,,0.00,meteohub,2013-05-17 23:37:00,
2013-05-17 19:42:00,70.3,58.1,30.13,SW,228,2.0,6.0,65,0.00,,,0.00,meteohub,2013-05-17 23:42:00,
2013-05-17 19:47:00,70.2,57.4,30.13,WSW,245,2.0,6.0,64,0.00,,,0.00,meteohub,2013-05-17 23:47:00,
2013-05-17 19:52:00,70.0,57.2,30.14,SW,220,3.0,6.0,64,0.00,,,0.00,meteohub,2013-05-17 23:52:00,
2013-05-17 19:57:00,69.8,57.6,30.14,SW,225,2.0,8.0,65,0.00,,,0.00,meteohub,2013-05-17 23:57:00,
2013-05-17 20:02:00,69.6,57.4,30.14,SSW,203,1.0,8.0,65,0.00,,,0.00,meteohub,2013-05-18 00:02:00,
2013-05-17 20:07:00,69.3,57.0,30.14,SW,220,2.0,8.0,65,0.00,,,0.00,meteohub,2013-05-18 00:07:00,
2013-05-17 20:12:00,69.3,57.4,30.14,SSW,204,0.0,4.0,66,0.00,,,0.00,meteohub,2013-05-18 00:12:00,
2013-05-17 20:17:00,68.9,57.6,30.14,SW,219,2.0,4.0,67,0.00,,,0.00,meteohub,2013-05-18 00:17:00,
2013-05-17 20:22:00,68.5,57.2,30.14,SW,225,0.0,4.0,67,0.00,,,0.00,meteohub,2013-05-18 00:22:00,
2013-05-17 20:27:00,68.4,57.4,30.14,SW,225,0.0,2.0,68,0.00,,,0.00,meteohub,2013-05-18 00:27:00,
2013-05-17 20:32:00,68.0,57.9,30.15,SW,225,0.0,2.0,70,0.00,,,0.00,meteohub,2013-05-18 00:32:00,
2013-05-17 20:37:00,67.6,58.6,30.15,SW,224,0.0,1.0,73,0.00,,,0.00,meteohub,2013-05-18 00:37:00,
2013-05-17 20:42:00,67.1,58.8,30.15,SW,225,0.0,1.0,75,0.00,,,0.00,meteohub,2013-05-18 00:42:00,
2013-05-17 20:47:00,66.6,58.5,30.15,SW,225,0.0,1.0,75,0.00,,,0.00,meteohub,2013-05-18 00:47:00,
2013-05-17 20:52:00,66.0,58.3,30.15,SW,225,0.0,0.0,76,0.00,,,0.00,meteohub,2013-05-18 00:52:00,
2013-05-17 20:57:00,65.8,58.5,30.16,SW,225,0.0,0.0,77,0.00,,,0.00,meteohub,2013-05-18 00:57:00,
2013-05-17 21:02:00,65.5,58.8,30.16,SW,221,0.0,1.0,79,0.00,,,0.00,meteohub,2013-05-18 01:02:00,
2013-05-17 21:07:00,64.9,58.6,30.15,SW,221,0.0,1.0,80,0.00,,,0.00,meteohub,2013-05-18 01:07:00,
2013-05-17 21:12:00,64.9,59.0,30.16,SW,221,0.0,1.0,81,0.00,,,0.00,meteohub,2013-05-18 01:12:00,
2013-05-17 21:17:00,64.8,58.8,30.16,SW,221,0.0,1.0,81,0.00,,,0.00,meteohub,2013-05-18 01:17:00,
2013-05-17 21:22:00,64.8,58.8,30.16,SW,221,0.0,0.0,81,0.00,,,0.00,meteohub,2013-05-18 01:22:00,
2013-05-17 21:27:00,64.6,58.3,30.16,SW,221,0.0,0.0,80,0.00,,,0.00,meteohub,2013-05-18 01:27:00,
2013-05-17 21:32:00,64.4,58.5,30.16,SW,221,0.0,0.0,81,0.00,,,0.00,meteohub,2013-05-18 01:32:00,
2013-05-17 21:37:00,64.2,58.3,30.16,SW,221,0.0,0.0,81,0.00,,,0.00,meteohub,2013-05-18 01:37:00,
2013-05-17 21:42:00,63.9,58.3,30.16,SW,221,0.0,0.0,82,0.00,,,0.00,meteohub,2013-05-18 01:42:00,
2013-05-17 21:47:00,63.9,58.6,30.15,SW,221,0.0,0.0,83,0.00,,,0.00,meteohub,2013-05-18 01:47:00,
2013-05-17 21:52:00,63.7,58.5,30.16,SW,221,0.0,0.0,83,0.00,,,0.00,meteohub,2013-05-18 01:52:00,
2013-05-17 21:57:00,63.3,58.5,30.16,SW,221,0.0,0.0,84,0.00,,,0.00,meteohub,2013-05-18 01:57:00,
2013-05-17 22:02:00,63.0,58.1,30.16,SW,221,0.0,0.0,84,0.00,,,0.00,meteohub,2013-05-18 02:02:00,
2013-05-17 22:07:00,62.4,57.9,30.16,SW,221,0.0,0.0,85,0.00,,,0.00,meteohub,2013-05-18 02:07:00,
2013-05-17 22:12:00,62.1,57.7,30.16,SW,221,0.0,1.0,86,0.00,,,0.00,meteohub,2013-05-18 02:12:00,
2013-05-17 22:17:00,61.9,57.6,30.17,SW,221,0.0,1.0,86,0.00,,,0.00,meteohub,2013-05-18 02:17:00,
2013-05-17 22:22:00,61.5,57.6,30.17,SW,221,0.0,1.0,87,0.00,,,0.00,meteohub,2013-05-18 02:22:00,
2013-05-17 22:27:00,61.3,57.4,30.17,SW,221,0.0,1.0,87,0.00,,,0.00,meteohub,2013-05-18 02:27:00,
2013-05-17 22:32:00,61.2,57.2,30.17,SW,221,0.0,0.0,87,0.00,,,0.00,meteohub,2013-05-18 02:32:00,
2013-05-17 22:37:00,61.2,57.6,30.17,SW,221,0.0,0.0,88,0.00,,,0.00,meteohub,2013-05-18 02:37:00,
2013-05-17 22:42:00,61.2,57.6,30.17,SW,221,0.0,0.0,88,0.00,,,0.00,meteohub,2013-05-18 02:42:00,
2013-05-17 22:47:00,61.0,57.4,30.17,SW,221,0.0,1.0,88,0.00,,,0.00,meteohub,2013-05-18 02:47:00,
2013-05-17 22:52:00,61.0,57.4,30.18,SW,221,0.0,1.0,88,0.00,,,0.00,meteohub,2013-05-18 02:52:00,
2013-05-17 22:57:00,60.8,57.2,30.18,SW,221,0.0,1.0,88,0.00,,,0.00,meteohub,2013-05-18 02:57:00,
2013-05-17 23:02:00,60.8,57.2,30.18,SW,221,0.0,0.0,88,0.00,,,0.00,meteohub,2013-05-18 03:02:00,
2013-05-17 23:07:00,60.8,57.2,30.18,SW,221,0.0,0.0,88,0.00,,,0.00,meteohub,2013-05-18 03:07:00,
2013-05-17 23:12:00,60.6,57.0,30.18,SW,221,0.0,0.0,88,0.00,,,0.00,meteohub,2013-05-18 03:12:00,
2013-05-17 23:17:00,60.6,57.0,30.18,SW,221,0.0,0.0,88,0.00,,,0.00,meteohub,2013-05-18 03:17:00,
2013-05-17 23:22:00,60.6,57.0,30.18,SW,221,0.0,0.0,88,0.00,,,0.00,meteohub,2013-05-18 03:22:00,
2013-05-17 23:27:00,60.4,56.8,30.18,SW,221,0.0,0.0,88,0.00,,,0.00,meteohub,2013-05-18 03:27:00,
2013-05-17 23:32:00,60.4,57.2,30.18,SW,221,0.0,0.0,89,0.00,,,0.00,meteohub,2013-05-18 03:32:00,
2013-05-17 23:37:00,60.3,57.0,30.18,SW,221,0.0,0.0,89,0.00,,,0.00,meteohub,2013-05-18 03:37:00,
2013-05-17 23:42:00,60.1,56.8,30.18,SW,221,0.0,0.0,89,0.00,,,0.00,meteohub,2013-05-18 03:42:00,
2013-05-17 23:47:00,60.1,57.2,30.18,SW,221,0.0,0.0,90,0.00,,,0.00,meteohub,2013-05-18 03:47:00,
2013-05-17 23:52:00,60.1,57.2,30.18,SW,221,0.0,0.0,90,0.00,,,0.00,meteohub,2013-05-18 03:52:00,
2013-05-17 23:57:00,59.7,56.8,30.18,SW,221,0.0,0.0,90,0.00,,,0.00,meteohub,2013-05-18 03:57:00,